createdAt,value
2023-02-08T00:00:46.098Z,10.23
2023-02-08T00:03:14.099Z,9.50
2023-02-08T00:05:41.869Z,9.57
2023-02-08T00:08:09.885Z,10.70
2023-02-08T00:10:37.527Z,10.17
2023-02-08T00:13:05.214Z,9.30
2023-02-08T00:15:34.474Z,9.50
2023-02-08T00:18:02.124Z,9.33
2023-02-08T00:20:29.807Z,10.43
2023-02-08T00:22:57.508Z,9.50
2023-02-08T00:25:25.168Z,10.03
2023-02-08T00:27:52.937Z,10.20
2023-02-08T00:30:20.675Z,11.07
2023-02-08T00:32:49.676Z,10.70
2023-02-08T00:35:17.546Z,9.97
2023-02-08T00:37:45.240Z,10.87
2023-02-08T00:40:13.389Z,9.80
2023-02-08T00:42:41.042Z,9.13
2023-02-08T00:45:09.537Z,9.43
2023-02-08T00:47:37.268Z,9.73
2023-02-08T00:50:07.319Z,10.10
2023-02-08T00:52:34.967Z,9.47
2023-02-08T00:55:02.874Z,9.43
2023-02-08T00:57:30.584Z,9.80
2023-02-08T00:59:58.218Z,9.53
2023-02-08T01:02:25.876Z,9.77
2023-02-08T01:04:53.578Z,9.50
2023-02-08T01:07:22.645Z,9.43
2023-02-08T01:09:50.262Z,9.30
2023-02-08T01:12:17.962Z,9.07
2023-02-08T01:14:45.950Z,9.00
2023-02-08T01:17:13.672Z,8.73
2023-02-08T01:19:42.579Z,9.70
2023-02-08T01:22:10.521Z,9.10
2023-02-08T01:24:39.604Z,9.70
2023-02-08T01:27:07.316Z,9.40
2023-02-08T01:29:37.529Z,8.90
2023-02-08T01:32:05.626Z,9.90
2023-02-08T01:34:33.258Z,10.57
2023-02-08T01:37:00.938Z,9.57
2023-02-08T01:39:29.051Z,10.50
2023-02-08T01:41:58.144Z,10.63
2023-02-08T01:45:03.722Z,9.87
2023-02-08T01:47:31.564Z,10.60
2023-02-08T01:50:02.326Z,9.80
2023-02-08T01:52:30.199Z,9.50
2023-02-08T01:55:00.232Z,9.10
2023-02-08T01:57:29.621Z,9.37
2023-02-08T01:59:59.767Z,9.33
2023-02-08T02:02:27.942Z,9.17
2023-02-08T02:04:56.197Z,9.20
2023-02-08T02:07:27.900Z,9.70
2023-02-08T02:10:01.029Z,8.70
2023-02-08T02:12:31.189Z,9.97
2023-02-08T02:14:59.521Z,9.37
2023-02-08T02:17:27.299Z,10.03
2023-02-08T02:20:01.264Z,10.87
2023-02-08T02:23:18.661Z,10.57
2023-02-08T02:25:57.095Z,11.10
2023-02-08T02:29:00.095Z,10.93
2023-02-08T02:31:57.398Z,12.37
2023-02-08T02:34:27.838Z,11.97
2023-02-08T02:37:03.158Z,12.20
2023-02-08T02:39:36.878Z,12.07
2023-02-08T02:42:28.718Z,11.20
2023-02-08T02:45:05.755Z,10.73
2023-02-08T02:47:40.090Z,11.13
2023-02-08T02:50:14.654Z,10.47
2023-02-08T02:52:45.886Z,10.97
2023-02-08T02:55:16.637Z,10.53
2023-02-08T02:57:46.074Z,10.50
2023-02-08T03:00:20.858Z,10.40
2023-02-08T03:02:49.859Z,10.67
2023-02-08T03:05:17.820Z,10.20
2023-02-08T03:07:56.444Z,9.93
2023-02-08T03:10:33.847Z,10.47
2023-02-08T03:13:05.188Z,10.00
2023-02-08T03:15:43.846Z,10.30
2023-02-08T03:18:21.661Z,10.37
2023-02-08T03:20:54.482Z,9.60
2023-02-08T03:23:25.616Z,9.77
2023-02-08T03:25:59.770Z,10.20
2023-02-08T03:28:30.339Z,10.47
2023-02-08T03:31:04.816Z,10.77
2023-02-08T03:33:36.270Z,11.17
2023-02-08T03:36:07.452Z,10.93
2023-02-08T03:38:39.477Z,10.00
2023-02-08T03:41:10.318Z,10.50
2023-02-08T03:43:41.707Z,10.70
2023-02-08T03:46:13.318Z,10.73
2023-02-08T03:51:19.358Z,10.03
2023-02-08T03:53:48.071Z,10.97
2023-02-08T03:56:18.457Z,11.13
2023-02-08T03:58:49.109Z,11.00
2023-02-08T04:01:19.679Z,11.40
2023-02-08T04:03:50.139Z,11.90
2023-02-08T04:06:19.203Z,10.73
2023-02-08T04:08:46.896Z,11.27
2023-02-08T04:11:14.551Z,11.00
2023-02-08T04:13:42.230Z,12.13
2023-02-08T04:16:10.569Z,12.20
2023-02-08T04:18:38.325Z,12.20
2023-02-08T04:21:06.292Z,12.00
2023-02-08T04:23:35.341Z,11.60
2023-02-08T04:26:04.073Z,11.67
2023-02-08T04:28:31.882Z,12.33
2023-02-08T04:30:59.663Z,11.93
2023-02-08T04:33:27.469Z,11.57
2023-02-08T04:35:55.180Z,11.63
2023-02-08T04:38:22.847Z,11.50
2023-02-08T04:40:51.993Z,11.73
2023-02-08T04:43:19.688Z,11.70
2023-02-08T04:45:47.352Z,11.17
2023-02-08T04:48:15.031Z,11.03
2023-02-08T04:50:43.276Z,10.83
2023-02-08T04:53:11.505Z,11.10
2023-02-08T04:55:39.300Z,11.43
2023-02-08T04:58:08.259Z,11.23
2023-02-08T05:00:35.989Z,11.57
2023-02-08T05:03:07.450Z,11.57
2023-02-08T05:05:35.220Z,10.53
2023-02-08T05:08:04.495Z,11.20
2023-02-08T05:10:32.161Z,11.13
2023-02-08T05:12:59.825Z,12.00
2023-02-08T05:15:28.927Z,13.13
2023-02-08T05:17:56.617Z,12.93
2023-02-08T05:20:24.336Z,13.20
2023-02-08T05:22:52.051Z,11.23
2023-02-08T05:25:19.720Z,12.83
2023-02-08T05:27:47.363Z,11.93
2023-02-08T05:30:15.097Z,11.40
2023-02-08T05:32:44.172Z,11.57
2023-02-08T05:35:11.770Z,11.67
2023-02-08T05:37:40.593Z,11.20
2023-02-08T05:40:09.596Z,11.70
2023-02-08T05:42:37.302Z,10.73
2023-02-08T05:45:05.575Z,11.37
2023-02-08T05:47:33.234Z,11.73
2023-02-08T05:50:02.317Z,11.10
2023-02-08T05:52:29.992Z,11.07
2023-02-08T05:54:57.694Z,11.47
2023-02-08T05:57:25.392Z,11.60
2023-02-08T05:59:53.127Z,12.27
2023-02-08T06:02:20.818Z,11.83
2023-02-08T06:04:48.525Z,11.70
2023-02-08T06:07:17.527Z,12.07
2023-02-08T06:09:46.598Z,11.43
2023-02-08T06:12:15.899Z,12.43
2023-02-08T06:14:43.561Z,11.77
2023-02-08T06:17:11.196Z,12.10
2023-02-08T06:19:38.850Z,12.07
2023-02-08T06:22:06.512Z,11.90
2023-02-08T06:24:35.491Z,12.10
2023-02-08T06:27:03.142Z,11.93
2023-02-08T06:29:30.868Z,11.57
2023-02-08T06:31:58.598Z,11.37
2023-02-08T06:34:26.345Z,12.37
2023-02-08T06:36:54.417Z,11.67
2023-02-08T06:39:22.107Z,12.37
2023-02-08T06:41:51.129Z,12.03
2023-02-08T06:44:19.001Z,12.90
2023-02-08T06:46:46.607Z,12.83
2023-02-08T06:51:49.466Z,12.83
2023-02-08T06:54:17.143Z,12.37
2023-02-08T06:56:45.849Z,12.40
2023-02-08T06:59:15.045Z,13.40
2023-02-08T07:01:42.752Z,12.43
2023-02-08T07:04:10.433Z,12.67
2023-02-08T07:06:38.058Z,11.77
2023-02-08T07:09:05.761Z,12.50
2023-02-08T07:11:33.411Z,13.07
2023-02-08T07:14:01.132Z,12.47
2023-02-08T07:16:30.697Z,12.20
2023-02-08T07:18:58.415Z,12.33
2023-02-08T07:21:26.144Z,12.90
2023-02-08T07:23:53.897Z,12.37
2023-02-08T07:26:21.611Z,11.77
2023-02-08T07:28:49.316Z,11.73
2023-02-08T07:31:18.237Z,12.27
2023-02-08T07:33:47.286Z,11.83
2023-02-08T07:36:15.003Z,12.50
2023-02-08T07:38:42.894Z,12.33
2023-02-08T07:41:14.417Z,13.80
2023-02-08T07:43:43.001Z,14.73
2023-02-08T07:46:12.390Z,11.97
2023-02-08T07:48:40.613Z,13.63
2023-02-08T07:51:10.436Z,13.93
2023-02-08T07:53:38.541Z,13.37
2023-02-08T07:56:06.658Z,13.37
2023-02-08T07:58:34.393Z,13.50
2023-02-08T08:01:15.874Z,13.97
2023-02-08T08:03:49.032Z,13.07
2023-02-08T08:06:20.796Z,13.20
2023-02-08T08:55:57.144Z,14.30
2023-02-08T08:58:24.825Z,14.57
2023-02-08T09:00:53.988Z,14.50
2023-02-08T09:03:21.792Z,13.47
2023-02-08T09:05:49.792Z,14.30
2023-02-08T09:08:17.498Z,13.80
2023-02-08T09:10:45.155Z,13.67
2023-02-08T09:13:19.312Z,13.60
2023-02-08T09:15:47.464Z,13.90
2023-02-08T09:18:15.328Z,14.07
2023-02-08T09:20:43.530Z,13.83
2023-02-08T09:23:11.518Z,13.27
2023-02-08T09:25:39.369Z,12.83
2023-02-08T09:28:08.082Z,13.20
2023-02-08T09:30:39.283Z,13.23
2023-02-08T09:33:07.372Z,11.90
2023-02-08T09:35:35.073Z,12.17
2023-02-08T09:38:04.584Z,10.93
2023-02-08T09:40:38.813Z,11.40
2023-02-08T09:43:09.798Z,11.73
2023-02-08T09:45:59.324Z,11.30
2023-02-08T09:48:29.374Z,11.93
2023-02-08T09:50:59.194Z,10.90
2023-02-08T09:53:32.557Z,10.87
2023-02-08T09:56:03.194Z,11.40
2023-02-08T09:58:35.666Z,11.90
2023-02-08T10:01:10.597Z,10.83
2023-02-08T10:03:39.690Z,10.63
2023-02-08T10:06:11.177Z,10.50
2023-02-08T10:08:39.453Z,10.73
2023-02-08T10:11:31.966Z,10.93
2023-02-08T10:14:16.398Z,10.87
2023-02-08T10:16:55.588Z,10.53
2023-02-08T10:19:34.680Z,10.57
2023-02-08T10:22:14.510Z,10.33
2023-02-08T10:24:52.868Z,10.57
2023-02-08T10:27:25.449Z,10.90
2023-02-08T10:30:19.047Z,9.80
2023-02-08T10:32:56.533Z,10.10
2023-02-08T10:35:27.572Z,11.17
2023-02-08T10:37:56.603Z,10.77
2023-02-08T10:40:36.743Z,11.13
2023-02-08T10:43:13.455Z,10.97
2023-02-08T10:45:47.295Z,11.00
2023-02-08T10:48:22.254Z,10.97
2023-02-08T10:50:50.360Z,10.10
2023-02-08T10:53:20.354Z,11.33
2023-02-08T10:55:49.413Z,10.80
2023-02-08T10:58:18.993Z,11.43
2023-02-08T11:00:47.151Z,11.50
2023-02-08T11:03:19.466Z,11.07
2023-02-08T11:05:47.325Z,11.43
2023-02-08T11:08:19.736Z,11.50
2023-02-08T11:10:57.777Z,11.47
2023-02-08T11:13:26.502Z,12.37
2023-02-08T11:15:56.968Z,11.77
2023-02-08T11:18:27.624Z,12.40
2023-02-08T11:21:00.357Z,11.77
2023-02-08T11:23:30.983Z,11.87
2023-02-08T11:26:15.840Z,11.17
2023-02-08T11:28:43.887Z,11.60
2023-02-08T11:31:18.223Z,11.40
2023-02-08T11:34:01.395Z,10.83
2023-02-08T11:36:32.357Z,11.30
2023-02-08T11:39:02.636Z,12.67
2023-02-08T11:41:31.222Z,11.23
2023-02-08T11:44:02.123Z,11.00
2023-02-08T11:46:32.084Z,11.00
2023-02-08T11:49:01.225Z,11.80
2023-02-08T11:51:31.495Z,11.47
2023-02-08T11:54:00.469Z,10.47
2023-02-08T11:56:30.217Z,10.63
2023-02-08T11:59:03.639Z,11.57
2023-02-08T12:01:32.840Z,10.83
2023-02-08T12:04:04.188Z,10.60
2023-02-08T12:06:53.594Z,10.67
2023-02-08T12:09:31.802Z,10.67
2023-02-08T12:12:07.181Z,10.27
2023-02-08T12:14:46.713Z,10.00
2023-02-08T12:17:27.155Z,9.50
2023-02-08T12:20:23.651Z,9.23
2023-02-08T12:22:56.908Z,8.23
2023-02-08T12:25:29.185Z,10.30
2023-02-08T12:28:02.624Z,10.10
2023-02-08T12:30:33.095Z,9.47
2023-02-08T12:33:17.267Z,8.63
2023-02-08T12:36:07.596Z,9.17
2023-02-08T12:39:18.313Z,8.93
2023-02-08T12:42:01.594Z,9.80
2023-02-08T12:44:34.763Z,9.30
2023-02-08T12:47:08.982Z,8.70
2023-02-08T12:52:39.058Z,9.27
2023-02-08T12:55:14.334Z,10.80
2023-02-08T12:57:45.294Z,9.60
2023-02-08T13:00:22.940Z,8.17
2023-02-08T13:02:57.561Z,8.40
2023-02-08T13:05:28.521Z,7.80
2023-02-08T13:08:03.632Z,8.23
2023-02-08T13:10:34.624Z,6.83
2023-02-08T13:13:07.774Z,6.73
2023-02-08T13:15:41.120Z,6.50
2023-02-08T13:18:41.111Z,6.37
2023-02-08T13:21:13.754Z,5.87
2023-02-08T13:23:52.488Z,5.87
2023-02-08T13:26:26.285Z,5.67
2023-02-08T13:28:55.772Z,5.53
2023-02-08T13:31:25.449Z,6.90
2023-02-08T13:34:01.695Z,6.03
2023-02-08T13:36:32.713Z,6.53
2023-02-08T13:39:03.314Z,5.80
2023-02-08T13:41:32.503Z,5.60
2023-02-08T13:44:02.530Z,6.43
2023-02-08T13:46:37.037Z,6.33
2023-02-08T13:49:04.839Z,6.40
2023-02-08T13:51:53.972Z,6.60
2023-02-08T13:54:23.048Z,6.50
2023-02-08T13:56:51.628Z,6.37
2023-02-08T13:59:30.233Z,6.17
2023-02-08T14:02:23.304Z,5.87
2023-02-08T14:04:51.788Z,6.07
2023-02-08T14:07:32.853Z,6.07
2023-02-08T14:10:08.791Z,6.33
2023-02-08T14:12:40.965Z,6.13
2023-02-08T14:15:25.336Z,6.67
2023-02-08T14:17:58.264Z,6.50
2023-02-08T14:20:29.514Z,6.57
2023-02-08T14:22:58.991Z,5.90
2023-02-08T14:25:30.538Z,5.80
2023-02-08T14:27:59.531Z,7.37
2023-02-08T14:30:30.832Z,7.00
2023-02-08T14:33:13.298Z,6.73
2023-02-08T14:35:43.106Z,6.10
2023-02-08T14:38:36.282Z,6.00
2023-02-08T14:41:05.486Z,6.33
2023-02-08T14:43:35.476Z,6.67
2023-02-08T14:46:41.811Z,6.63
2023-02-08T14:49:12.139Z,6.57
2023-02-08T14:51:42.450Z,6.30
2023-02-08T14:54:18.972Z,6.27
2023-02-08T14:56:54.216Z,6.27
2023-02-08T14:59:24.512Z,6.77
2023-02-08T15:01:54.702Z,6.97
2023-02-08T15:04:22.509Z,6.03
2023-02-08T15:07:14.770Z,6.37
2023-02-08T15:09:44.009Z,6.10
2023-02-08T15:12:17.359Z,5.90
2023-02-08T15:14:45.506Z,6.07
2023-02-08T15:17:21.546Z,5.93
2023-02-08T15:19:50.386Z,5.60
2023-02-08T15:22:19.964Z,5.57
2023-02-08T15:24:51.310Z,5.63
2023-02-08T15:27:24.283Z,5.10
2023-02-08T15:29:52.309Z,5.17
2023-02-08T15:32:22.420Z,5.13
2023-02-08T15:34:53.885Z,5.37
2023-02-08T15:37:21.917Z,5.33
2023-02-08T15:39:52.757Z,5.60
2023-02-08T15:42:23.761Z,5.07
2023-02-08T15:44:51.689Z,4.57
2023-02-08T15:47:21.407Z,5.07
2023-02-08T15:49:53.440Z,4.77
2023-02-08T15:52:22.863Z,4.30
2023-02-08T15:54:51.501Z,3.80
2023-02-08T15:57:27.963Z,4.03
2023-02-08T15:59:55.755Z,3.97
2023-02-08T16:02:25.468Z,4.37
2023-02-08T16:04:53.217Z,4.33
2023-02-08T16:07:27.099Z,4.27
2023-02-08T16:09:55.170Z,4.23
2023-02-08T16:12:24.253Z,4.10
2023-02-08T16:14:56.452Z,4.10
2023-02-08T16:17:37.649Z,4.00
2023-02-08T16:20:22.823Z,4.20
2023-02-08T16:22:56.839Z,4.30
2023-02-08T16:25:31.479Z,4.10
2023-02-08T16:27:59.204Z,4.70
2023-02-08T16:30:28.466Z,3.90
2023-02-08T16:32:56.345Z,4.50
2023-02-08T16:35:26.029Z,3.70
2023-02-08T16:38:00.388Z,3.80
2023-02-08T16:40:52.508Z,4.07
2023-02-08T16:43:23.091Z,3.60
2023-02-08T16:46:27.684Z,3.70
2023-02-08T16:48:57.002Z,3.47
2023-02-08T16:51:26.823Z,3.60
2023-02-08T16:53:57.250Z,3.40
2023-02-08T16:56:25.372Z,3.70
2023-02-08T16:58:53.261Z,3.50
2023-02-08T17:01:21.341Z,3.53
2023-02-08T17:03:52.900Z,3.60
2023-02-08T17:06:29.211Z,3.47
2023-02-08T17:08:56.957Z,3.43
2023-02-08T17:11:24.682Z,3.17
2023-02-08T17:13:53.071Z,3.40
2023-02-08T17:16:23.114Z,3.07
2023-02-08T17:18:52.484Z,3.00
2023-02-08T17:21:20.527Z,3.87
2023-02-08T17:23:48.430Z,3.90
2023-02-08T17:26:19.095Z,4.03
2023-02-08T17:28:46.817Z,3.63
2023-02-08T17:31:15.391Z,3.97
2023-02-08T17:33:43.446Z,3.67
2023-02-08T17:36:14.590Z,3.90
2023-02-08T17:38:44.223Z,3.93
2023-02-08T17:41:14.530Z,4.10
2023-02-08T17:43:42.191Z,3.87
2023-02-08T17:46:10.879Z,4.13
2023-02-08T17:48:38.856Z,3.90
2023-02-08T17:51:09.996Z,3.90
2023-02-08T17:53:40.852Z,4.10
2023-02-08T17:56:09.673Z,4.00
2023-02-08T17:58:37.807Z,3.90
2023-02-08T18:01:05.982Z,3.70
2023-02-08T18:03:34.022Z,4.47
2023-02-08T18:06:02.254Z,4.43
2023-02-08T18:08:29.938Z,4.63
2023-02-08T18:11:04.050Z,4.40
2023-02-08T18:13:31.730Z,5.13
2023-02-08T18:15:59.428Z,5.10
2023-02-08T18:18:27.125Z,4.70
2023-02-08T18:20:54.809Z,5.00
2023-02-08T18:23:22.491Z,5.00
2023-02-08T18:25:50.226Z,5.67
2023-02-08T18:28:19.694Z,6.47
2023-02-08T18:30:47.513Z,6.20
2023-02-08T18:33:15.185Z,5.57
2023-02-08T18:35:49.064Z,5.87
2023-02-08T18:38:16.688Z,5.90
2023-02-08T18:40:44.345Z,5.40
2023-02-08T18:43:12.093Z,5.83
2023-02-08T18:45:41.316Z,5.50
2023-02-08T18:48:09.435Z,5.57
2023-02-08T18:50:37.082Z,5.77
2023-02-08T18:53:04.952Z,5.53
2023-02-08T18:55:33.258Z,5.97
2023-02-08T18:58:00.940Z,5.80
2023-02-08T19:00:28.656Z,5.83
2023-02-08T19:02:57.704Z,6.23
2023-02-08T19:05:25.624Z,5.93
2023-02-08T19:07:53.257Z,5.90
2023-02-08T19:10:20.902Z,5.43
2023-02-08T19:12:48.550Z,5.80
2023-02-08T19:15:16.325Z,5.83
2023-02-08T19:17:44.073Z,5.83
2023-02-08T19:20:13.867Z,6.20
2023-02-08T19:22:41.551Z,5.73
2023-02-08T19:25:09.567Z,5.63
2023-02-08T19:27:37.657Z,6.13
2023-02-08T19:30:05.948Z,6.07
2023-02-08T19:32:33.669Z,5.10
2023-02-08T19:35:01.360Z,5.90
2023-02-08T19:37:30.388Z,5.73
2023-02-08T19:39:58.094Z,6.10
2023-02-08T19:42:25.764Z,5.53
2023-02-08T19:44:53.406Z,5.73
2023-02-08T19:47:22.463Z,6.10
2023-02-08T19:49:50.217Z,6.20
2023-02-08T19:52:20.685Z,5.73
2023-02-08T19:54:50.060Z,5.90
2023-02-08T19:57:17.706Z,6.07
2023-02-08T19:59:45.396Z,5.67
2023-02-08T20:02:13.464Z,6.07
2023-02-08T20:04:41.419Z,5.77
2023-02-08T20:07:09.576Z,6.23
2023-02-08T20:09:37.667Z,6.80
2023-02-08T20:12:07.409Z,6.00
2023-02-08T20:14:35.100Z,6.20
2023-02-08T20:17:03.211Z,6.23
2023-02-08T20:19:31.032Z,5.73
2023-02-08T20:21:58.685Z,6.27
2023-02-08T20:24:26.355Z,6.00
2023-02-08T20:26:54.251Z,5.77
2023-02-08T20:29:23.373Z,6.07
2023-02-08T20:31:55.613Z,5.43
2023-02-08T20:34:23.377Z,5.70
2023-02-08T20:37:05.635Z,5.73
2023-02-08T20:39:34.011Z,5.20
2023-02-08T20:42:01.667Z,5.37
2023-02-08T20:44:31.662Z,4.97
2023-02-08T20:46:59.424Z,5.23
2023-02-08T20:49:27.143Z,4.67
2023-02-08T20:51:55.506Z,4.60
2023-02-08T20:54:24.720Z,4.67
2023-02-08T20:56:53.167Z,4.60
2023-02-08T20:59:20.886Z,4.93
2023-02-08T21:01:50.116Z,5.33
2023-02-08T21:04:20.201Z,5.07
2023-02-08T21:06:47.945Z,5.67
2023-02-08T21:09:17.818Z,4.60
2023-02-08T21:11:46.130Z,5.20
2023-02-08T21:14:18.673Z,5.07
2023-02-08T21:16:47.773Z,4.90
2023-02-08T21:19:17.297Z,5.37
2023-02-08T21:21:45.152Z,4.93
2023-02-08T21:24:12.842Z,4.83
2023-02-08T21:26:40.553Z,4.93
2023-02-08T21:29:08.957Z,5.03
2023-02-08T21:31:37.681Z,4.90
2023-02-08T21:34:06.263Z,4.53
2023-02-08T21:36:35.826Z,4.67
2023-02-08T21:39:03.781Z,5.03
2023-02-08T21:41:33.243Z,4.67
2023-02-08T21:44:03.817Z,4.97
2023-02-08T21:46:32.493Z,5.00
2023-02-08T21:49:17.910Z,4.80
2023-02-08T21:52:04.966Z,5.17
2023-02-08T21:54:42.854Z,5.03
2023-02-08T21:57:12.768Z,4.80
2023-02-08T21:59:40.863Z,4.90
2023-02-08T22:02:09.732Z,4.93
2023-02-08T22:04:55.470Z,5.43
2023-02-08T22:07:25.272Z,5.50
2023-02-08T22:09:53.077Z,4.93
2023-02-08T22:12:22.994Z,4.60
2023-02-08T22:14:51.449Z,5.00
2023-02-08T22:17:19.161Z,5.13
2023-02-08T22:19:47.014Z,5.23
2023-02-08T22:22:14.730Z,4.90
2023-02-08T22:24:43.843Z,4.70
2023-02-08T22:27:12.028Z,4.70
2023-02-08T22:29:39.761Z,5.00
2023-02-08T22:32:09.915Z,5.03
2023-02-08T22:34:38.207Z,4.60
2023-02-08T22:37:05.973Z,5.10
2023-02-08T22:39:34.213Z,4.57
2023-02-08T22:42:07.984Z,5.00
2023-02-08T22:44:35.919Z,5.17
2023-02-08T22:47:03.854Z,4.63
2023-02-08T22:49:31.615Z,4.70
2023-02-08T22:52:00.803Z,5.43
2023-02-08T22:54:28.560Z,4.50
2023-02-08T22:56:56.256Z,5.13
2023-02-08T22:59:25.285Z,5.10
2023-02-08T23:01:52.948Z,4.93
2023-02-08T23:04:20.656Z,5.03
2023-02-08T23:06:51.022Z,5.27
2023-02-08T23:09:18.902Z,4.80
2023-02-08T23:11:46.624Z,5.00
2023-02-08T23:14:14.364Z,5.00
2023-02-08T23:16:43.511Z,4.60
2023-02-08T23:19:14.568Z,4.67
2023-02-08T23:21:42.351Z,5.10
2023-02-08T23:24:10.282Z,4.87
2023-02-08T23:26:38.557Z,4.93
2023-02-08T23:29:06.401Z,5.40
2023-02-08T23:31:34.347Z,4.97
2023-02-08T23:34:03.373Z,4.90
2023-02-08T23:36:31.172Z,4.67
2023-02-08T23:38:58.790Z,5.20
2023-02-08T23:41:26.478Z,5.20
2023-02-08T23:43:54.143Z,4.73
2023-02-08T23:46:23.255Z,4.70
2023-02-08T23:48:51.086Z,5.03
2023-02-08T23:51:18.493Z,4.97
2023-02-08T23:53:47.909Z,4.57
2023-02-08T23:56:17.460Z,4.93
2023-02-08T23:58:46.465Z,5.13
